sensor_id;sensor_type;location;lat;lon;timestamp;temperature;humidity
39347;DHT22;26262;49.836;6.632;2023-02-17T00:02:03;6.50;99.90
39347;DHT22;26262;49.836;6.632;2023-02-17T00:04:30;6.50;99.90
39347;DHT22;26262;49.836;6.632;2023-02-17T00:06:55;6.60;99.90
39347;DHT22;26262;49.836;6.632;2023-02-17T00:09:21;6.60;99.90
39347;DHT22;26262;49.836;6.632;2023-02-17T00:11:47;6.60;99.90
39347;DHT22;26262;49.836;6.632;2023-02-17T00:14:13;6.90;99.90
39347;DHT22;26262;49.836;6.632;2023-02-17T00:16:39;6.90;99.90
39347;DHT22;26262;49.836;6.632;2023-02-17T00:19:05;6.80;99.90
39347;DHT22;26262;49.836;6.632;2023-02-17T00:21:55;6.80;99.90
39347;DHT22;26262;49.836;6.632;2023-02-17T00:24:22;6.90;99.90
39347;DHT22;26262;49.836;6.632;2023-02-17T00:26:48;6.80;99.90
39347;DHT22;26262;49.836;6.632;2023-02-17T00:29:14;6.90;99.90
39347;DHT22;26262;49.836;6.632;2023-02-17T00:31:40;6.80;99.90
39347;DHT22;26262;49.836;6.632;2023-02-17T00:34:05;6.80;99.90
39347;DHT22;26262;49.836;6.632;2023-02-17T00:36:31;6.80;99.90
39347;DHT22;26262;49.836;6.632;2023-02-17T00:38:57;6.80;99.90
39347;DHT22;26262;49.836;6.632;2023-02-17T00:41:26;6.80;99.90
39347;DHT22;26262;49.836;6.632;2023-02-17T00:43:52;6.80;99.90
39347;DHT22;26262;49.836;6.632;2023-02-17T00:46:18;6.80;99.90
39347;DHT22;26262;49.836;6.632;2023-02-17T00:48:44;6.80;99.90
39347;DHT22;26262;49.836;6.632;2023-02-17T00:51:10;6.80;99.90
39347;DHT22;26262;49.836;6.632;2023-02-17T00:53:35;6.90;99.90
39347;DHT22;26262;49.836;6.632;2023-02-17T00:56:01;6.90;99.90
39347;DHT22;26262;49.836;6.632;2023-02-17T00:58:27;6.90;99.90
39347;DHT22;26262;49.836;6.632;2023-02-17T01:00:57;6.90;99.90
39347;DHT22;26262;49.836;6.632;2023-02-17T01:03:23;6.90;99.90
39347;DHT22;26262;49.836;6.632;2023-02-17T01:05:49;7.00;99.90
39347;DHT22;26262;49.836;6.632;2023-02-17T01:08:16;7.00;99.90
39347;DHT22;26262;49.836;6.632;2023-02-17T01:10:43;6.90;99.90
39347;DHT22;26262;49.836;6.632;2023-02-17T01:13:10;7.10;99.90
39347;DHT22;26262;49.836;6.632;2023-02-17T01:15:40;7.00;99.90
39347;DHT22;26262;49.836;6.632;2023-02-17T01:18:06;7.10;99.90
39347;DHT22;26262;49.836;6.632;2023-02-17T01:20:39;7.10;99.90
39347;DHT22;26262;49.836;6.632;2023-02-17T01:23:05;7.00;99.90
39347;DHT22;26262;49.836;6.632;2023-02-17T01:25:38;7.10;99.90
39347;DHT22;26262;49.836;6.632;2023-02-17T01:28:04;7.00;99.90
39347;DHT22;26262;49.836;6.632;2023-02-17T01:30:30;7.10;99.90
39347;DHT22;26262;49.836;6.632;2023-02-17T01:32:56;7.00;99.90
39347;DHT22;26262;49.836;6.632;2023-02-17T01:35:21;7.10;99.90
39347;DHT22;26262;49.836;6.632;2023-02-17T01:37:47;7.10;99.90
39347;DHT22;26262;49.836;6.632;2023-02-17T01:40:14;7.10;99.90
39347;DHT22;26262;49.836;6.632;2023-02-17T01:42:40;7.20;99.90
39347;DHT22;26262;49.836;6.632;2023-02-17T01:47:41;7.20;99.90
39347;DHT22;26262;49.836;6.632;2023-02-17T01:50:07;7.10;99.90
39347;DHT22;26262;49.836;6.632;2023-02-17T01:52:33;7.20;99.90
39347;DHT22;26262;49.836;6.632;2023-02-17T01:55:05;7.20;99.90
39347;DHT22;26262;49.836;6.632;2023-02-17T01:57:35;7.20;99.90
39347;DHT22;26262;49.836;6.632;2023-02-17T02:00:03;7.20;99.90
39347;DHT22;26262;49.836;6.632;2023-02-17T02:02:29;7.20;99.90
39347;DHT22;26262;49.836;6.632;2023-02-17T02:04:55;7.20;99.90
39347;DHT22;26262;49.836;6.632;2023-02-17T02:07:27;7.20;99.90
39347;DHT22;26262;49.836;6.632;2023-02-17T02:09:56;7.20;99.90
39347;DHT22;26262;49.836;6.632;2023-02-17T02:12:23;7.20;99.90
39347;DHT22;26262;49.836;6.632;2023-02-17T02:14:49;7.30;99.90
39347;DHT22;26262;49.836;6.632;2023-02-17T02:31:44;7.40;99.90
39347;DHT22;26262;49.836;6.632;2023-02-17T02:34:32;7.40;99.90
39347;DHT22;26262;49.836;6.632;2023-02-17T02:37:11;7.40;99.90
39347;DHT22;26262;49.836;6.632;2023-02-17T02:39:41;7.50;99.90
39347;DHT22;26262;49.836;6.632;2023-02-17T02:42:12;7.70;99.90
39347;DHT22;26262;49.836;6.632;2023-02-17T02:44:38;7.70;99.90
39347;DHT22;26262;49.836;6.632;2023-02-17T02:47:33;7.80;99.90
39347;DHT22;26262;49.836;6.632;2023-02-17T02:49:51;7.90;99.90
39347;DHT22;26262;49.836;6.632;2023-02-17T02:52:30;8.00;99.90
39347;DHT22;26262;49.836;6.632;2023-02-17T02:55:08;8.10;99.90
39347;DHT22;26262;49.836;6.632;2023-02-17T03:03:39;8.10;99.90
39347;DHT22;26262;49.836;6.632;2023-02-17T03:06:23;8.20;99.90
39347;DHT22;26262;49.836;6.632;2023-02-17T03:08:55;8.30;99.90
39347;DHT22;26262;49.836;6.632;2023-02-17T03:11:23;8.20;99.90
39347;DHT22;26262;49.836;6.632;2023-02-17T03:14:09;8.30;99.90
39347;DHT22;26262;49.836;6.632;2023-02-17T03:16:36;8.20;99.90
39347;DHT22;26262;49.836;6.632;2023-02-17T03:19:03;8.30;99.90
39347;DHT22;26262;49.836;6.632;2023-02-17T03:21:35;8.20;99.90
39347;DHT22;26262;49.836;6.632;2023-02-17T03:24:02;8.00;99.90
39347;DHT22;26262;49.836;6.632;2023-02-17T03:26:28;8.00;99.90
39347;DHT22;26262;49.836;6.632;2023-02-17T03:28:53;8.00;99.90
39347;DHT22;26262;49.836;6.632;2023-02-17T03:31:19;7.80;99.90
39347;DHT22;26262;49.836;6.632;2023-02-17T03:33:44;7.90;99.90
39347;DHT22;26262;49.836;6.632;2023-02-17T03:36:10;7.80;99.90
39347;DHT22;26262;49.836;6.632;2023-02-17T03:38:35;7.80;99.90
39347;DHT22;26262;49.836;6.632;2023-02-17T03:41:01;7.80;99.90
39347;DHT22;26262;49.836;6.632;2023-02-17T03:43:26;7.70;99.90
39347;DHT22;26262;49.836;6.632;2023-02-17T03:45:52;7.80;99.90
39347;DHT22;26262;49.836;6.632;2023-02-17T03:48:17;7.80;99.90
39347;DHT22;26262;49.836;6.632;2023-02-17T03:50:43;7.80;99.90
39347;DHT22;26262;49.836;6.632;2023-02-17T03:53:10;7.80;99.90
39347;DHT22;26262;49.836;6.632;2023-02-17T03:55:35;7.80;99.90
39347;DHT22;26262;49.836;6.632;2023-02-17T03:58:01;7.80;99.90
39347;DHT22;26262;49.836;6.632;2023-02-17T04:00:26;7.90;99.90
39347;DHT22;26262;49.836;6.632;2023-02-17T04:02:52;7.90;99.90
39347;DHT22;26262;49.836;6.632;2023-02-17T04:05:17;7.90;99.90
39347;DHT22;26262;49.836;6.632;2023-02-17T04:07:43;7.90;99.90
39347;DHT22;26262;49.836;6.632;2023-02-17T04:10:09;7.90;99.90
39347;DHT22;26262;49.836;6.632;2023-02-17T04:12:35;7.90;99.90
39347;DHT22;26262;49.836;6.632;2023-02-17T04:15:00;7.90;99.90
39347;DHT22;26262;49.836;6.632;2023-02-17T04:17:26;7.80;99.90
39347;DHT22;26262;49.836;6.632;2023-02-17T04:19:51;7.80;99.90
39347;DHT22;26262;49.836;6.632;2023-02-17T04:22:17;7.90;99.90
39347;DHT22;26262;49.836;6.632;2023-02-17T04:24:42;7.70;99.90
39347;DHT22;26262;49.836;6.632;2023-02-17T04:27:08;7.70;99.90
39347;DHT22;26262;49.836;6.632;2023-02-17T04:29:33;7.70;99.90
39347;DHT22;26262;49.836;6.632;2023-02-17T04:31:59;7.70;99.90
39347;DHT22;26262;49.836;6.632;2023-02-17T04:34:25;7.70;99.90
39347;DHT22;26262;49.836;6.632;2023-02-17T04:36:50;7.80;99.90
39347;DHT22;26262;49.836;6.632;2023-02-17T04:39:16;7.80;99.90
39347;DHT22;26262;49.836;6.632;2023-02-17T04:41:41;7.80;99.90
39347;DHT22;26262;49.836;6.632;2023-02-17T04:44:07;7.90;99.90
39347;DHT22;26262;49.836;6.632;2023-02-17T04:46:32;7.80;99.90
39347;DHT22;26262;49.836;6.632;2023-02-17T04:48:58;7.80;99.90
39347;DHT22;26262;49.836;6.632;2023-02-17T04:51:23;7.80;99.90
39347;DHT22;26262;49.836;6.632;2023-02-17T04:53:49;7.90;99.90
39347;DHT22;26262;49.836;6.632;2023-02-17T04:56:14;7.90;99.90
39347;DHT22;26262;49.836;6.632;2023-02-17T04:58:40;7.90;99.90
39347;DHT22;26262;49.836;6.632;2023-02-17T05:01:05;7.90;99.90
39347;DHT22;26262;49.836;6.632;2023-02-17T05:03:31;8.00;99.90
39347;DHT22;26262;49.836;6.632;2023-02-17T05:05:57;8.00;99.90
39347;DHT22;26262;49.836;6.632;2023-02-17T05:08:22;8.00;99.90
39347;DHT22;26262;49.836;6.632;2023-02-17T05:10:50;8.10;99.90
39347;DHT22;26262;49.836;6.632;2023-02-17T05:13:17;8.10;99.90
39347;DHT22;26262;49.836;6.632;2023-02-17T05:15:43;8.10;99.90
39347;DHT22;26262;49.836;6.632;2023-02-17T05:18:08;8.10;99.90
39347;DHT22;26262;49.836;6.632;2023-02-17T05:20:34;8.20;99.90
39347;DHT22;26262;49.836;6.632;2023-02-17T05:23:00;8.20;99.90
39347;DHT22;26262;49.836;6.632;2023-02-17T05:25:26;8.20;99.90
39347;DHT22;26262;49.836;6.632;2023-02-17T05:27:51;8.10;99.90
39347;DHT22;26262;49.836;6.632;2023-02-17T05:30:17;8.00;99.90
39347;DHT22;26262;49.836;6.632;2023-02-17T05:32:42;8.00;99.90
39347;DHT22;26262;49.836;6.632;2023-02-17T05:35:08;7.80;99.90
39347;DHT22;26262;49.836;6.632;2023-02-17T05:37:33;7.90;99.90
39347;DHT22;26262;49.836;6.632;2023-02-17T05:39:59;7.80;99.90
39347;DHT22;26262;49.836;6.632;2023-02-17T05:42:25;7.90;99.90
39347;DHT22;26262;49.836;6.632;2023-02-17T05:44:56;7.80;99.90
39347;DHT22;26262;49.836;6.632;2023-02-17T05:47:22;7.80;99.90
39347;DHT22;26262;49.836;6.632;2023-02-17T05:49:48;7.80;99.90
39347;DHT22;26262;49.836;6.632;2023-02-17T05:52:13;7.80;99.90
39347;DHT22;26262;49.836;6.632;2023-02-17T05:54:39;7.80;99.90
39347;DHT22;26262;49.836;6.632;2023-02-17T05:57:04;7.80;99.90
39347;DHT22;26262;49.836;6.632;2023-02-17T05:59:30;7.90;99.90
39347;DHT22;26262;49.836;6.632;2023-02-17T06:01:55;7.80;99.90
39347;DHT22;26262;49.836;6.632;2023-02-17T06:04:21;7.80;99.90
39347;DHT22;26262;49.836;6.632;2023-02-17T06:06:46;7.80;99.90
39347;DHT22;26262;49.836;6.632;2023-02-17T06:09:12;7.80;99.90
39347;DHT22;26262;49.836;6.632;2023-02-17T06:11:38;7.90;99.90
39347;DHT22;26262;49.836;6.632;2023-02-17T06:14:03;7.90;99.90
39347;DHT22;26262;49.836;6.632;2023-02-17T06:16:29;7.90;99.90
39347;DHT22;26262;49.836;6.632;2023-02-17T06:18:55;8.20;99.90
39347;DHT22;26262;49.836;6.632;2023-02-17T06:21:20;8.20;99.90
39347;DHT22;26262;49.836;6.632;2023-02-17T06:23:46;8.20;99.90
39347;DHT22;26262;49.836;6.632;2023-02-17T06:26:11;8.20;99.90
39347;DHT22;26262;49.836;6.632;2023-02-17T06:28:37;8.20;99.90
39347;DHT22;26262;49.836;6.632;2023-02-17T06:31:03;8.10;99.90
39347;DHT22;26262;49.836;6.632;2023-02-17T06:33:28;8.10;99.90
39347;DHT22;26262;49.836;6.632;2023-02-17T06:35:54;8.20;99.90
39347;DHT22;26262;49.836;6.632;2023-02-17T06:38:20;8.50;99.90
39347;DHT22;26262;49.836;6.632;2023-02-17T06:40:46;8.70;99.90
39347;DHT22;26262;49.836;6.632;2023-02-17T06:43:12;8.80;99.90
39347;DHT22;26262;49.836;6.632;2023-02-17T06:45:38;8.90;99.90
39347;DHT22;26262;49.836;6.632;2023-02-17T06:48:03;9.00;99.90
39347;DHT22;26262;49.836;6.632;2023-02-17T06:50:29;9.00;99.90
39347;DHT22;26262;49.836;6.632;2023-02-17T06:52:54;9.10;99.90
39347;DHT22;26262;49.836;6.632;2023-02-17T06:55:20;9.20;99.90
39347;DHT22;26262;49.836;6.632;2023-02-17T06:57:45;9.20;99.90
39347;DHT22;26262;49.836;6.632;2023-02-17T07:00:11;9.30;99.90
39347;DHT22;26262;49.836;6.632;2023-02-17T07:02:38;9.30;99.90
39347;DHT22;26262;49.836;6.632;2023-02-17T07:05:04;9.40;99.90
39347;DHT22;26262;49.836;6.632;2023-02-17T07:07:30;9.40;99.90
39347;DHT22;26262;49.836;6.632;2023-02-17T07:09:55;9.50;99.90
39347;DHT22;26262;49.836;6.632;2023-02-17T07:12:21;9.50;99.90
39347;DHT22;26262;49.836;6.632;2023-02-17T07:14:47;9.60;99.90
39347;DHT22;26262;49.836;6.632;2023-02-17T07:17:13;9.60;99.90
39347;DHT22;26262;49.836;6.632;2023-02-17T07:19:38;9.70;99.90
39347;DHT22;26262;49.836;6.632;2023-02-17T07:22:04;9.70;99.90
39347;DHT22;26262;49.836;6.632;2023-02-17T07:24:29;9.70;99.90
39347;DHT22;26262;49.836;6.632;2023-02-17T07:26:55;9.80;99.90
39347;DHT22;26262;49.836;6.632;2023-02-17T07:29:21;9.80;99.90
39347;DHT22;26262;49.836;6.632;2023-02-17T07:31:47;9.80;99.90
39347;DHT22;26262;49.836;6.632;2023-02-17T07:34:13;9.80;99.90
39347;DHT22;26262;49.836;6.632;2023-02-17T07:36:38;9.90;99.90
39347;DHT22;26262;49.836;6.632;2023-02-17T07:39:04;9.90;99.90
39347;DHT22;26262;49.836;6.632;2023-02-17T07:41:30;9.90;99.90
39347;DHT22;26262;49.836;6.632;2023-02-17T07:43:58;9.80;99.90
39347;DHT22;26262;49.836;6.632;2023-02-17T07:46:24;9.80;99.90
39347;DHT22;26262;49.836;6.632;2023-02-17T07:48:50;9.80;99.90
39347;DHT22;26262;49.836;6.632;2023-02-17T07:51:19;9.80;99.90
39347;DHT22;26262;49.836;6.632;2023-02-17T07:53:45;9.90;99.90
39347;DHT22;26262;49.836;6.632;2023-02-17T07:56:12;9.90;99.90
39347;DHT22;26262;49.836;6.632;2023-02-17T07:58:39;9.90;99.90
39347;DHT22;26262;49.836;6.632;2023-02-17T08:01:13;9.90;99.90
39347;DHT22;26262;49.836;6.632;2023-02-17T08:03:39;9.90;99.90
39347;DHT22;26262;49.836;6.632;2023-02-17T08:06:24;10.00;99.90
39347;DHT22;26262;49.836;6.632;2023-02-17T08:08:51;10.00;99.90
39347;DHT22;26262;49.836;6.632;2023-02-17T08:11:35;10.00;99.90
39347;DHT22;26262;49.836;6.632;2023-02-17T08:14:21;10.10;99.90
39347;DHT22;26262;49.836;6.632;2023-02-17T08:16:46;10.10;99.90
39347;DHT22;26262;49.836;6.632;2023-02-17T08:19:12;10.10;99.90
39347;DHT22;26262;49.836;6.632;2023-02-17T08:21:38;10.10;99.90
39347;DHT22;26262;49.836;6.632;2023-02-17T08:24:04;10.10;99.90
39347;DHT22;26262;49.836;6.632;2023-02-17T08:26:30;10.10;99.90
39347;DHT22;26262;49.836;6.632;2023-02-17T08:28:55;10.10;99.90
39347;DHT22;26262;49.836;6.632;2023-02-17T08:31:24;10.20;99.90
39347;DHT22;26262;49.836;6.632;2023-02-17T08:33:50;10.20;99.90
39347;DHT22;26262;49.836;6.632;2023-02-17T08:36:16;10.20;99.90
39347;DHT22;26262;49.836;6.632;2023-02-17T08:38:42;10.30;99.90
39347;DHT22;26262;49.836;6.632;2023-02-17T08:41:34;10.40;99.90
39347;DHT22;26262;49.836;6.632;2023-02-17T08:44:02;10.40;99.90
39347;DHT22;26262;49.836;6.632;2023-02-17T08:46:28;10.40;99.90
39347;DHT22;26262;49.836;6.632;2023-02-17T08:48:55;10.40;99.90
39347;DHT22;26262;49.836;6.632;2023-02-17T08:51:22;10.40;99.90
39347;DHT22;26262;49.836;6.632;2023-02-17T08:53:51;10.50;99.90
39347;DHT22;26262;49.836;6.632;2023-02-17T08:56:19;10.50;99.90
39347;DHT22;26262;49.836;6.632;2023-02-17T08:58:44;10.60;99.90
39347;DHT22;26262;49.836;6.632;2023-02-17T09:01:10;10.60;99.90
39347;DHT22;26262;49.836;6.632;2023-02-17T09:03:37;10.70;99.90
39347;DHT22;26262;49.836;6.632;2023-02-17T09:06:04;10.70;99.90
39347;DHT22;26262;49.836;6.632;2023-02-17T09:08:29;10.70;99.90
39347;DHT22;26262;49.836;6.632;2023-02-17T09:10:55;10.70;99.90
39347;DHT22;26262;49.836;6.632;2023-02-17T09:13:20;10.80;99.90
39347;DHT22;26262;49.836;6.632;2023-02-17T09:15:46;10.90;99.90
39347;DHT22;26262;49.836;6.632;2023-02-17T09:18:12;10.90;99.90
39347;DHT22;26262;49.836;6.632;2023-02-17T09:20:38;10.90;99.90
39347;DHT22;26262;49.836;6.632;2023-02-17T09:23:04;10.90;99.90
39347;DHT22;26262;49.836;6.632;2023-02-17T09:25:30;11.00;99.90
39347;DHT22;26262;49.836;6.632;2023-02-17T09:27:55;11.00;99.90
39347;DHT22;26262;49.836;6.632;2023-02-17T09:30:21;11.10;99.90
39347;DHT22;26262;49.836;6.632;2023-02-17T09:32:46;11.10;99.90
39347;DHT22;26262;49.836;6.632;2023-02-17T09:35:13;11.10;99.90
39347;DHT22;26262;49.836;6.632;2023-02-17T09:37:39;11.10;99.90
39347;DHT22;26262;49.836;6.632;2023-02-17T09:40:06;11.10;99.90
39347;DHT22;26262;49.836;6.632;2023-02-17T09:42:37;11.10;99.90
39347;DHT22;26262;49.836;6.632;2023-02-17T09:45:06;11.10;99.90
39347;DHT22;26262;49.836;6.632;2023-02-17T09:47:37;11.10;99.90
39347;DHT22;26262;49.836;6.632;2023-02-17T09:50:05;11.10;99.90
39347;DHT22;26262;49.836;6.632;2023-02-17T09:55:07;11.10;99.90
39347;DHT22;26262;49.836;6.632;2023-02-17T09:57:51;11.20;99.90
39347;DHT22;26262;49.836;6.632;2023-02-17T10:00:24;11.10;99.90
39347;DHT22;26262;49.836;6.632;2023-02-17T10:02:59;11.10;99.90
39347;DHT22;26262;49.836;6.632;2023-02-17T10:05:37;11.10;99.90
39347;DHT22;26262;49.836;6.632;2023-02-17T10:08:26;11.10;99.90
39347;DHT22;26262;49.836;6.632;2023-02-17T10:10:58;11.10;99.90
39347;DHT22;26262;49.836;6.632;2023-02-17T10:13:30;11.10;99.90
39347;DHT22;26262;49.836;6.632;2023-02-17T10:16:02;11.10;99.90
39347;DHT22;26262;49.836;6.632;2023-02-17T10:18:39;11.20;99.90
39347;DHT22;26262;49.836;6.632;2023-02-17T10:21:20;11.20;99.90
39347;DHT22;26262;49.836;6.632;2023-02-17T10:23:50;11.20;99.90
39347;DHT22;26262;49.836;6.632;2023-02-17T10:26:57;11.20;99.90
39347;DHT22;26262;49.836;6.632;2023-02-17T10:30:03;11.20;99.90
39347;DHT22;26262;49.836;6.632;2023-02-17T10:38:15;11.30;99.90
39347;DHT22;26262;49.836;6.632;2023-02-17T10:40:45;11.40;99.90
39347;DHT22;26262;49.836;6.632;2023-02-17T10:45:43;11.50;99.90
39347;DHT22;26262;49.836;6.632;2023-02-17T10:48:20;11.50;99.90
39347;DHT22;26262;49.836;6.632;2023-02-17T10:50:47;11.50;99.90
39347;DHT22;26262;49.836;6.632;2023-02-17T10:53:21;11.50;99.90
39347;DHT22;26262;49.836;6.632;2023-02-17T11:01:22;11.60;99.90
39347;DHT22;26262;49.836;6.632;2023-02-17T11:04:02;11.60;99.90
39347;DHT22;26262;49.836;6.632;2023-02-17T11:06:28;11.60;99.90
39347;DHT22;26262;49.836;6.632;2023-02-17T11:08:59;11.70;99.90
39347;DHT22;26262;49.836;6.632;2023-02-17T11:11:30;11.70;99.90
39347;DHT22;26262;49.836;6.632;2023-02-17T11:19:03;11.80;99.90
39347;DHT22;26262;49.836;6.632;2023-02-17T11:21:29;11.80;99.90
39347;DHT22;26262;49.836;6.632;2023-02-17T11:24:02;11.90;99.90
39347;DHT22;26262;49.836;6.632;2023-02-17T11:26:30;11.90;99.90
39347;DHT22;26262;49.836;6.632;2023-02-17T11:29:16;12.00;99.90
39347;DHT22;26262;49.836;6.632;2023-02-17T11:31:53;12.00;99.90
39347;DHT22;26262;49.836;6.632;2023-02-17T11:34:23;12.00;99.90
39347;DHT22;26262;49.836;6.632;2023-02-17T11:37:01;12.10;99.90
39347;DHT22;26262;49.836;6.632;2023-02-17T11:39:26;12.10;99.90
39347;DHT22;26262;49.836;6.632;2023-02-17T11:41:52;12.20;99.90
39347;DHT22;26262;49.836;6.632;2023-02-17T11:44:22;12.20;99.90
39347;DHT22;26262;49.836;6.632;2023-02-17T11:47:11;12.20;99.90
39347;DHT22;26262;49.836;6.632;2023-02-17T11:49:59;12.20;99.90
39347;DHT22;26262;49.836;6.632;2023-02-17T11:52:41;12.20;99.90
39347;DHT22;26262;49.836;6.632;2023-02-17T11:58:16;12.20;99.90
39347;DHT22;26262;49.836;6.632;2023-02-17T12:04:04;12.30;99.90
39347;DHT22;26262;49.836;6.632;2023-02-17T12:12:20;12.30;99.90
39347;DHT22;26262;49.836;6.632;2023-02-17T12:17:50;12.30;99.90
39347;DHT22;26262;49.836;6.632;2023-02-17T12:28:55;12.40;99.90
39347;DHT22;26262;49.836;6.632;2023-02-17T12:34:19;12.40;99.90
39347;DHT22;26262;49.836;6.632;2023-02-17T12:36:48;12.40;99.90
39347;DHT22;26262;49.836;6.632;2023-02-17T12:39:19;12.40;99.90
39347;DHT22;26262;49.836;6.632;2023-02-17T12:41:50;12.40;99.90
39347;DHT22;26262;49.836;6.632;2023-02-17T12:44:21;12.40;99.90
39347;DHT22;26262;49.836;6.632;2023-02-17T12:46:51;12.40;99.90
39347;DHT22;26262;49.836;6.632;2023-02-17T12:49:33;12.50;99.90
39347;DHT22;26262;49.836;6.632;2023-02-17T12:54:44;12.50;99.90
39347;DHT22;26262;49.836;6.632;2023-02-17T12:57:31;12.50;99.90
39347;DHT22;26262;49.836;6.632;2023-02-17T12:59:59;12.50;99.90
39347;DHT22;26262;49.836;6.632;2023-02-17T13:02:25;12.50;99.90
39347;DHT22;26262;49.836;6.632;2023-02-17T13:04:53;12.50;99.90
39347;DHT22;26262;49.836;6.632;2023-02-17T13:07:38;12.50;99.90
39347;DHT22;26262;49.836;6.632;2023-02-17T13:10:15;12.50;99.90
39347;DHT22;26262;49.836;6.632;2023-02-17T13:12:42;12.50;99.90
39347;DHT22;26262;49.836;6.632;2023-02-17T13:15:32;12.50;99.90
39347;DHT22;26262;49.836;6.632;2023-02-17T13:18:01;12.50;99.90
39347;DHT22;26262;49.836;6.632;2023-02-17T13:23:24;12.60;99.90
39347;DHT22;26262;49.836;6.632;2023-02-17T13:26:45;12.60;99.90
39347;DHT22;26262;49.836;6.632;2023-02-17T13:28:48;12.70;99.90
39347;DHT22;26262;49.836;6.632;2023-02-17T13:31:15;12.70;99.90
39347;DHT22;26262;49.836;6.632;2023-02-17T13:33:48;12.70;99.90
39347;DHT22;26262;49.836;6.632;2023-02-17T13:41:47;12.80;99.90
39347;DHT22;26262;49.836;6.632;2023-02-17T13:44:32;12.80;99.90
39347;DHT22;26262;49.836;6.632;2023-02-17T13:47:01;12.80;99.90
39347;DHT22;26262;49.836;6.632;2023-02-17T13:49:30;12.80;99.90
39347;DHT22;26262;49.836;6.632;2023-02-17T13:52:16;12.80;99.90
39347;DHT22;26262;49.836;6.632;2023-02-17T13:54:55;12.80;99.90
39347;DHT22;26262;49.836;6.632;2023-02-17T13:57:23;12.80;99.90
39347;DHT22;26262;49.836;6.632;2023-02-17T13:59:49;12.80;99.90
39347;DHT22;26262;49.836;6.632;2023-02-17T14:02:19;12.70;99.90
39347;DHT22;26262;49.836;6.632;2023-02-17T14:04:45;12.70;99.90
39347;DHT22;26262;49.836;6.632;2023-02-17T14:07:11;12.70;99.90
39347;DHT22;26262;49.836;6.632;2023-02-17T14:09:37;12.80;99.90
39347;DHT22;26262;49.836;6.632;2023-02-17T14:12:12;12.70;99.90
39347;DHT22;26262;49.836;6.632;2023-02-17T14:14:41;12.70;99.90
39347;DHT22;26262;49.836;6.632;2023-02-17T14:17:14;12.70;99.90
39347;DHT22;26262;49.836;6.632;2023-02-17T14:19:51;12.70;99.90
39347;DHT22;26262;49.836;6.632;2023-02-17T14:22:33;12.70;99.90
39347;DHT22;26262;49.836;6.632;2023-02-17T14:25:13;12.60;99.90
39347;DHT22;26262;49.836;6.632;2023-02-17T14:27:43;12.60;99.90
39347;DHT22;26262;49.836;6.632;2023-02-17T14:30:27;12.60;99.90
39347;DHT22;26262;49.836;6.632;2023-02-17T14:33:23;12.60;99.90
39347;DHT22;26262;49.836;6.632;2023-02-17T14:38:22;12.60;99.90
39347;DHT22;26262;49.836;6.632;2023-02-17T14:40:48;12.60;99.90
39347;DHT22;26262;49.836;6.632;2023-02-17T14:43:14;12.50;99.90
39347;DHT22;26262;49.836;6.632;2023-02-17T14:45:40;12.50;99.90
39347;DHT22;26262;49.836;6.632;2023-02-17T14:48:05;12.50;99.90
39347;DHT22;26262;49.836;6.632;2023-02-17T14:50:32;12.40;99.90
39347;DHT22;26262;49.836;6.632;2023-02-17T14:52:58;12.40;99.90
39347;DHT22;26262;49.836;6.632;2023-02-17T14:55:35;12.40;99.90
39347;DHT22;26262;49.836;6.632;2023-02-17T14:58:03;12.30;99.90
39347;DHT22;26262;49.836;6.632;2023-02-17T15:00:29;12.30;99.90
39347;DHT22;26262;49.836;6.632;2023-02-17T15:02:55;12.30;99.90
39347;DHT22;26262;49.836;6.632;2023-02-17T15:05:20;12.30;99.90
39347;DHT22;26262;49.836;6.632;2023-02-17T15:07:46;12.30;99.90
39347;DHT22;26262;49.836;6.632;2023-02-17T15:10:21;12.20;99.90
39347;DHT22;26262;49.836;6.632;2023-02-17T15:12:49;12.20;99.90
39347;DHT22;26262;49.836;6.632;2023-02-17T15:15:15;12.20;99.90
39347;DHT22;26262;49.836;6.632;2023-02-17T15:17:41;12.20;99.90
39347;DHT22;26262;49.836;6.632;2023-02-17T15:20:07;12.20;99.90
39347;DHT22;26262;49.836;6.632;2023-02-17T15:22:36;12.20;99.90
39347;DHT22;26262;49.836;6.632;2023-02-17T15:25:20;12.10;99.90
39347;DHT22;26262;49.836;6.632;2023-02-17T15:27:48;12.20;99.90
39347;DHT22;26262;49.836;6.632;2023-02-17T15:30:17;12.20;99.90
39347;DHT22;26262;49.836;6.632;2023-02-17T15:32:43;12.30;99.90
39347;DHT22;26262;49.836;6.632;2023-02-17T15:35:19;12.30;99.90
39347;DHT22;26262;49.836;6.632;2023-02-17T15:37:44;12.20;99.90
39347;DHT22;26262;49.836;6.632;2023-02-17T15:40:15;12.20;99.90
39347;DHT22;26262;49.836;6.632;2023-02-17T15:42:43;12.20;99.90
39347;DHT22;26262;49.836;6.632;2023-02-17T15:45:18;12.20;99.90
39347;DHT22;26262;49.836;6.632;2023-02-17T15:47:51;12.20;99.90
39347;DHT22;26262;49.836;6.632;2023-02-17T15:50:21;12.20;99.90
39347;DHT22;26262;49.836;6.632;2023-02-17T15:52:48;12.20;99.90
39347;DHT22;26262;49.836;6.632;2023-02-17T15:55:15;12.30;99.90
39347;DHT22;26262;49.836;6.632;2023-02-17T15:57:46;12.30;99.90
39347;DHT22;26262;49.836;6.632;2023-02-17T16:00:26;12.30;99.90
39347;DHT22;26262;49.836;6.632;2023-02-17T16:02:53;12.30;99.90
39347;DHT22;26262;49.836;6.632;2023-02-17T16:05:21;12.30;99.90
39347;DHT22;26262;49.836;6.632;2023-02-17T16:07:47;12.30;99.90
39347;DHT22;26262;49.836;6.632;2023-02-17T16:10:16;12.30;99.90
39347;DHT22;26262;49.836;6.632;2023-02-17T16:12:42;12.30;99.90
39347;DHT22;26262;49.836;6.632;2023-02-17T16:15:20;12.30;99.90
39347;DHT22;26262;49.836;6.632;2023-02-17T16:17:47;12.30;99.90
39347;DHT22;26262;49.836;6.632;2023-02-17T16:20:28;12.30;99.90
39347;DHT22;26262;49.836;6.632;2023-02-17T16:22:54;12.30;99.90
39347;DHT22;26262;49.836;6.632;2023-02-17T16:25:21;12.30;99.90
39347;DHT22;26262;49.836;6.632;2023-02-17T16:27:48;12.30;99.90
39347;DHT22;26262;49.836;6.632;2023-02-17T16:30:17;12.30;99.90
39347;DHT22;26262;49.836;6.632;2023-02-17T16:32:43;12.30;99.90
39347;DHT22;26262;49.836;6.632;2023-02-17T16:35:16;12.30;99.90
39347;DHT22;26262;49.836;6.632;2023-02-17T16:37:48;12.30;99.90
39347;DHT22;26262;49.836;6.632;2023-02-17T16:40:18;12.30;99.90
39347;DHT22;26262;49.836;6.632;2023-02-17T16:42:44;12.30;99.90
39347;DHT22;26262;49.836;6.632;2023-02-17T16:45:14;12.20;99.90
39347;DHT22;26262;49.836;6.632;2023-02-17T16:47:39;12.20;99.90
39347;DHT22;26262;49.836;6.632;2023-02-17T16:50:06;12.20;99.90
39347;DHT22;26262;49.836;6.632;2023-02-17T16:52:33;12.20;99.90
39347;DHT22;26262;49.836;6.632;2023-02-17T16:54:59;12.20;99.90
39347;DHT22;26262;49.836;6.632;2023-02-17T16:57:24;12.20;99.90
39347;DHT22;26262;49.836;6.632;2023-02-17T16:59:50;12.20;99.90
39347;DHT22;26262;49.836;6.632;2023-02-17T17:02:16;12.20;99.90
39347;DHT22;26262;49.836;6.632;2023-02-17T17:04:42;12.20;99.90
39347;DHT22;26262;49.836;6.632;2023-02-17T17:07:11;12.20;99.90
39347;DHT22;26262;49.836;6.632;2023-02-17T17:09:38;12.20;99.90
39347;DHT22;26262;49.836;6.632;2023-02-17T17:12:03;12.10;99.90
39347;DHT22;26262;49.836;6.632;2023-02-17T17:14:29;12.10;99.90